Hlavní strana
METAR-TAF:

METAR-TAF

Letiště :

Stavropol, Rusko

zeměpisná šířka: 45-20N, zeměpisná délka: 042-00E, výška: 453 m

Aktuální stav počasí

Zpráva byla vytvořena před 31 minutami, v 11:30 UTC
Východojihovýchodní vítr 10 kt
Teplota 21°C
Vlhkost vzduchu 56%
Tlak 1013 hPa
Viditelnost 10 km a více
Polojasno ve výšce 4000 ft, Cumulonimbus.

METAR: URMT 041130Z 11005MPS 9999 SCT040CB 21/12 Q1013 R07/010070 NOSIG RMK QFE720

Čas: 16:01 (12:01 UTC)

Předpověď počasí

Zpráva byla vytvořena před 1 hodinou a 1 minutami, v 11:00 UTC
Předpověď platná od 04 v 12 UTC do 04 v 21 UTC
Východní vítr 6 kt s nárazy do 16 kt
Viditelnost 10 km a více
Polojasno ve výšce 2000 ft, Cumulonimbus.
Dočasný
od 04 v 12 UTC do 04 v 21 UTC
vítr z různých směrů 12 kt s nárazy do 27 kt
Viditelnost: 4000 m
Polojasno ve výšce 1100 ft
Oblačno až skoro zataženo ve výšce 2000 ft, Cumulonimbus.
bouřka, slabý déšť

TAF: URMT 041100Z 0412/0421 10003G08MPS 9999 SCT020CB TEMPO 0412/0421 VRB06G14MPS 4000 -TSRA SCT011 BKN020CB

Stav a předpovědi počasí z více než 4 000 letišť (zprávy METAR a TAF).

Červené a žluté tečky na mapě představují dostupné meteorologické stanice.

Když kurzor umístíte na tečku, zobrazí se název stanice.

Pak kliknutím zobrazíte stav a předpověď počasí.

Chcete-li změnit mapu, kliknutím na zelené tlačítko se znaménkem +mapu přiblížíte, kliknutím na zelené tlačítko se znaménkem – mapu oddálíte a kliknutím na zelené šipky přejdete na sousední mapy.


METAR-TAF: